Time;durP1;ratioP1;P1;durP2;ratioP2;P2;SDS_P1;SDS_P2;PMS_P1;PMS_P2;Temp;Humidity;BMP_temperature;BMP_pressure;BME280_temperature;BME280_humidity;BME280_pressure;Samples;Min_cycle;Max_cycle;Signal;HPM_P1;HPM_P2
2022/09/19 00:01:16;;;;;;;2.97;0.40;;;;;;;17.13;38.77;98721.50;4997288;28;20041;-74
2022/09/19 00:03:43;;;;;;;1.13;0.45;;;;;;;17.09;38.69;98720.16;5000021;28;20032;-74
2022/09/19 00:06:10;;;;;;;1.03;0.40;;;;;;;17.06;38.78;98723.09;5001776;28;20108;-74
2022/09/19 00:08:37;;;;;;;2.25;0.50;;;;;;;17.04;38.72;98722.44;5001100;28;20644;-75
2022/09/19 00:11:03;;;;;;;2.80;0.40;;;;;;;16.98;38.94;98724.75;5000977;28;20038;-75
2022/09/19 00:13:29;;;;;;;1.90;0.40;;;;;;;16.99;38.98;98733.47;5001789;28;20064;-75
2022/09/19 00:15:55;;;;;;;2.05;0.75;;;;;;;16.96;39.17;98728.50;5017696;28;20021;-75
2022/09/19 00:18:20;;;;;;;0.75;0.47;;;;;;;16.94;39.20;98725.22;5001127;28;20040;-75
2022/09/19 00:20:49;;;;;;;1.25;0.60;;;;;;;16.90;39.29;98729.97;5001200;28;20026;-74
2022/09/19 00:25:59;;;;;;;2.40;0.47;;;;;;;16.79;39.41;98719.66;5020044;28;20033;-75
2022/09/19 00:28:27;;;;;;;0.82;0.43;;;;;;;16.78;39.43;98729.38;5035252;28;20052;-75
2022/09/19 00:30:54;;;;;;;1.33;0.45;;;;;;;16.74;39.67;98721.94;4984972;28;20132;-75
2022/09/19 00:33:20;;;;;;;1.30;0.60;;;;;;;16.73;39.59;98729.03;5001043;28;20500;-75
2022/09/19 00:35:50;;;;;;;4.47;0.50;;;;;;;16.69;39.61;98725.06;5017216;28;20045;-75
2022/09/19 00:38:16;;;;;;;2.60;0.70;;;;;;;16.63;39.80;98721.25;5001182;28;20033;-75
2022/09/19 00:40:41;;;;;;;0.95;0.57;;;;;;;16.58;39.76;98718.22;5035102;28;20029;-75
2022/09/19 00:43:10;;;;;;;1.45;0.50;;;;;;;16.59;39.73;98726.97;5000780;28;20079;-75
2022/09/19 00:45:36;;;;;;;0.63;0.45;;;;;;;16.56;39.70;98727.28;5016904;28;20442;-75
2022/09/19 00:48:01;;;;;;;0.40;0.30;;;;;;;16.53;39.87;98723.16;5034667;28;20028;-75
2022/09/19 00:50:27;;;;;;;1.02;0.50;;;;;;;16.46;39.68;98725.59;5000549;28;20091;-75
2022/09/19 00:52:55;;;;;;;2.08;0.50;;;;;;;16.41;39.92;98725.22;4984281;28;20049;-75
2022/09/19 00:55:21;;;;;;;1.80;0.50;;;;;;;16.44;39.81;98721.44;5017086;28;20037;-75
2022/09/19 00:58:14;;;;;;;1.08;0.40;;;;;;;16.40;39.68;98726.19;5034646;28;20396;-75
2022/09/19 01:00:40;;;;;;;2.15;0.30;;;;;;;16.38;39.72;98725.53;4998020;28;20060;-76
2022/09/19 01:03:09;;;;;;;1.67;0.47;;;;;;;16.37;39.72;98726.50;5000206;28;20417;-76
2022/09/19 01:06:16;;;;;;;1.00;0.40;;;;;;;16.35;39.61;98722.38;5001534;28;20036;-76
2022/09/19 01:08:54;;;;;;;0.55;0.32;;;;;;;16.30;39.67;98725.47;5033788;28;20452;-75
2022/09/19 01:11:32;;;;;;;0.57;0.40;;;;;;;16.27;39.48;98729.25;5000321;28;20033;-75
2022/09/19 01:14:15;;;;;;;1.33;0.40;;;;;;;16.27;39.39;98729.25;5034702;28;20021;-76
2022/09/19 01:16:43;;;;;;;0.95;0.38;;;;;;;16.25;39.51;98728.56;5000356;28;20074;-75
2022/09/19 01:19:24;;;;;;;0.47;0.40;;;;;;;16.25;39.36;98727.72;4984554;28;20022;-75
2022/09/19 01:22:22;;;;;;;1.98;0.95;;;;;;;16.23;39.35;98730.53;5034514;28;20032;-76
2022/09/19 01:25:22;;;;;;;0.68;0.38;;;;;;;16.19;39.03;98733.63;4954024;29;20074;-76
2022/09/19 01:28:13;;;;;;;0.63;0.40;;;;;;;16.17;39.09;98736.41;4878765;29;20402;-76
2022/09/19 01:30:43;;;;;;;1.05;0.40;;;;;;;16.17;38.96;98730.31;4877894;29;20485;-76
2022/09/19 01:33:17;;;;;;;1.60;0.50;;;;;;;16.17;39.15;98738.22;4862429;29;20093;-76
2022/09/19 01:35:44;;;;;;;2.78;0.50;;;;;;;16.17;38.99;98725.03;4862424;29;20056;-76
2022/09/19 01:38:11;;;;;;;2.33;0.80;;;;;;;16.16;38.62;98723.38;4862455;29;20041;-76
2022/09/19 01:40:36;;;;;;;0.95;0.47;;;;;;;16.20;38.76;98728.19;4877808;29;20060;-76
2022/09/19 01:43:02;;;;;;;0.70;0.40;;;;;;;16.21;38.70;98726.41;4893523;29;20033;-75
2022/09/19 01:45:37;;;;;;;1.00;0.43;;;;;;;16.14;38.70;98723.53;4878212;29;20505;-75
2022/09/19 01:48:08;;;;;;;0.82;0.40;;;;;;;16.18;38.65;98726.72;4878104;29;20136;-76
2022/09/19 01:50:51;;;;;;;1.13;0.40;;;;;;;16.17;38.84;98714.50;4878061;29;20048;-76
2022/09/19 01:53:51;;;;;;;0.50;0.30;;;;;;;16.11;38.96;98708.03;4892679;29;20041;-75
2022/09/19 01:56:22;;;;;;;0.82;0.40;;;;;;;16.14;39.11;98717.44;4875346;29;20052;-75
2022/09/19 01:58:51;;;;;;;2.72;0.50;;;;;;;16.11;39.05;98718.56;4893513;29;20037;-75
2022/09/19 02:01:32;;;;;;;;;;;;;;;16.09;38.81;98710.81;4911880;29;20055;-75
2022/09/19 02:04:22;;;;;;;1.73;0.30;;;;;;;16.03;39.14;98721.97;4946102;28;19913;-75
2022/09/19 02:06:55;;;;;;;1.73;0.60;;;;;;;15.96;39.28;98717.50;5033657;28;20143;-75
2022/09/19 02:09:27;;;;;;;0.60;0.30;;;;;;;15.98;39.35;98723.41;4999968;28;20480;-75
2022/09/19 02:11:53;;;;;;;0.80;0.43;;;;;;;15.95;39.37;98724.53;5015117;28;20033;-75
2022/09/19 02:14:21;;;;;;;0.90;0.40;;;;;;;15.90;39.27;98730.25;4999858;28;20091;-75
2022/09/19 02:16:58;;;;;;;1.15;0.40;;;;;;;15.88;39.57;98726.94;5015992;28;20540;-75
2022/09/19 02:19:38;;;;;;;3.60;0.40;;;;;;;15.89;39.64;98727.78;5015633;28;20408;-75
2022/09/19 02:22:08;;;;;;;3.35;0.60;;;;;;;15.87;39.86;98724.47;4999189;28;20026;-75
2022/09/19 02:24:36;;;;;;;0.50;0.40;;;;;;;15.89;40.16;98733.88;4999942;28;20032;-75
2022/09/19 02:27:07;;;;;;;0.68;0.40;;;;;;;15.83;40.46;98723.97;4999150;28;20025;-74
2022/09/19 02:29:33;;;;;;;0.60;0.40;;;;;;;15.83;40.51;98718.69;4999665;28;20501;-75
2022/09/19 02:31:59;;;;;;;0.82;0.40;;;;;;;15.78;40.45;98718.31;4998988;28;20025;-75
2022/09/19 02:34:25;;;;;;;0.45;0.32;;;;;;;15.79;40.71;98725.22;4998771;28;20041;-75
2022/09/19 02:36:54;;;;;;;0.88;0.40;;;;;;;15.71;40.64;98720.69;5015253;28;20040;-74
2022/09/19 02:39:35;;;;;;;0.65;0.40;;;;;;;15.71;40.88;98728.56;4998801;28;20402;-75
2022/09/19 02:42:12;;;;;;;0.90;0.52;;;;;;;15.66;40.85;98730.84;4984579;28;20041;-75
2022/09/19 02:44:52;;;;;;;2.47;0.40;;;;;;;15.67;41.05;98734.28;5015209;28;20029;-75
2022/09/19 02:47:25;;;;;;;1.65;0.45;;;;;;;15.66;40.90;98733.47;5032660;28;20381;-75
2022/09/19 02:50:00;;;;;;;1.67;0.40;;;;;;;15.63;40.80;98733.75;4998582;28;20204;-74
2022/09/19 02:52:30;;;;;;;1.33;0.57;;;;;;;15.60;40.86;98730.59;5015368;28;20070;-75
2022/09/19 02:55:02;;;;;;;3.22;0.47;;;;;;;15.52;40.97;98726.91;4982098;28;20045;-74
2022/09/19 02:57:29;;;;;;;1.52;0.50;;;;;;;15.52;40.70;98739.25;4983024;28;20041;-74
2022/09/19 02:59:58;;;;;;;1.33;0.57;;;;;;;15.49;41.11;98726.38;4983187;28;20052;-75
2022/09/19 03:02:30;;;;;;;1.15;0.40;;;;;;;15.47;41.20;98728.34;4982955;28;20029;-74
2022/09/19 03:05:10;;;;;;;1.77;0.60;;;;;;;15.49;41.30;98724.56;4998366;28;20515;-75
2022/09/19 03:07:38;;;;;;;1.00;0.63;;;;;;;15.48;41.39;98722.09;5015503;28;20504;-75
2022/09/19 03:10:17;;;;;;;1.20;0.60;;;;;;;15.45;41.36;98731.13;4982162;28;20495;-74
2022/09/19 03:12:47;;;;;;;7.13;0.85;;;;;;;15.46;41.25;98727.50;4999124;28;20105;-75
2022/09/19 03:15:13;;;;;;;0.57;0.40;;;;;;;15.44;41.25;98734.72;5015224;28;20025;-74
2022/09/19 03:17:41;;;;;;;0.93;0.50;;;;;;;15.44;40.83;98734.72;4998704;28;20087;-75
2022/09/19 03:20:11;;;;;;;4.05;0.63;;;;;;;15.42;41.12;98738.47;4982002;28;20101;-74
2022/09/19 03:22:37;;;;;;;6.88;0.70;;;;;;;15.39;41.25;98734.34;4999528;28;20469;-74
2022/09/19 03:25:03;;;;;;;1.40;0.50;;;;;;;15.40;41.20;98743.06;4998097;28;20022;-75
2022/09/19 03:27:29;;;;;;;0.63;0.43;;;;;;;15.34;41.23;98737.41;4998368;28;20469;-76
2022/09/19 03:29:54;;;;;;;2.30;0.60;;;;;;;15.33;41.34;98738.38;5014251;28;20061;-75
2022/09/19 03:32:23;;;;;;;1.25;0.50;;;;;;;15.31;41.64;98747.41;4998755;28;20036;-75
2022/09/19 03:34:49;;;;;;;3.53;0.80;;;;;;;15.34;41.47;98760.28;4998607;28;20460;-76
2022/09/19 03:37:14;;;;;;;0.95;0.60;;;;;;;15.32;41.71;98755.16;5014286;28;20037;-77
2022/09/19 03:39:40;;;;;;;0.88;0.65;;;;;;;15.29;41.81;98757.22;5018580;28;20029;-76
2022/09/19 03:42:06;;;;;;;0.98;0.60;;;;;;;15.29;41.68;98759.84;5002220;28;20040;-77
2022/09/19 03:44:32;;;;;;;1.63;0.60;;;;;;;15.21;41.75;98752.69;5002395;28;20057;-76
2022/09/19 03:46:57;;;;;;;0.90;0.60;;;;;;;15.25;41.86;98754.06;4986001;28;20532;-76
2022/09/19 03:49:23;;;;;;;1.17;0.60;;;;;;;15.25;41.99;98754.06;5018189;28;20037;-75
2022/09/19 03:51:49;;;;;;;1.48;0.60;;;;;;;15.21;42.11;98747.44;5035889;28;20505;-75
2022/09/19 03:54:14;;;;;;;1.27;0.60;;;;;;;15.15;41.83;98746.25;5036350;28;20036;-75
2022/09/19 03:56:40;;;;;;;2.38;0.57;;;;;;;15.13;42.10;98744.72;5001942;28;20029;-75
2022/09/19 03:59:05;;;;;;;0.68;0.50;;;;;;;15.13;41.91;98736.84;5018455;28;20496;-75
2022/09/19 04:01:31;;;;;;;1.10;0.68;;;;;;;15.17;42.00;98754.81;5001772;28;20508;-75
2022/09/19 04:03:56;;;;;;;1.10;0.70;;;;;;;15.19;41.76;98752.84;5018258;28;20095;-75
2022/09/19 04:06:22;;;;;;;1.13;0.50;;;;;;;15.58;41.16;98749.19;5018014;28;20069;-75
2022/09/19 04:08:47;;;;;;;1.33;0.50;;;;;;;16.31;39.64;98750.00;5002037;28;20409;-75
2022/09/19 04:11:13;;;;;;;1.00;0.50;;;;;;;17.02;38.36;98756.88;5017935;28;20111;-75
2022/09/19 04:13:38;;;;;;;0.77;0.63;;;;;;;17.73;37.02;98752.16;5001064;28;20038;-76
2022/09/19 04:16:05;;;;;;;0.80;0.60;;;;;;;18.47;35.61;98749.56;5001454;28;20037;-75
2022/09/19 04:18:31;;;;;;;2.13;0.70;;;;;;;19.26;34.13;98754.13;5017753;28;20036;-76
2022/09/19 04:20:56;;;;;;;1.00;0.60;;;;;;;19.94;32.62;98754.44;5001412;28;20033;-76
2022/09/19 04:23:23;;;;;;;0.70;0.60;;;;;;;20.74;31.29;98759.22;5001209;28;20038;-75
2022/09/19 04:25:49;;;;;;;1.30;0.80;;;;;;;21.48;29.96;98768.97;5035185;28;20029;-75
2022/09/19 04:28:16;;;;;;;5.18;0.93;;;;;;;22.31;28.76;98765.97;5017475;28;20539;-75
2022/09/19 04:30:43;;;;;;;2.03;0.70;;;;;;;23.06;27.41;98755.59;5034922;28;20111;-74
2022/09/19 04:33:10;;;;;;;3.75;0.55;;;;;;;23.80;26.41;98764.69;5017333;28;20083;-75
2022/09/19 04:35:35;;;;;;;1.45;0.40;;;;;;;24.55;25.62;98769.06;4984355;28;20051;-74
2022/09/19 04:38:06;;;;;;;2.53;0.40;;;;;;;25.22;24.67;98774.25;4984131;28;20037;-76
2022/09/19 04:40:36;;;;;;;1.77;0.50;;;;;;;25.73;23.54;98767.25;5001751;28;20033;-77
2022/09/19 04:43:02;;;;;;;1.15;0.60;;;;;;;26.33;22.64;98774.94;5017365;28;20037;-76
2022/09/19 04:45:28;;;;;;;2.95;0.50;;;;;;;26.87;21.93;98761.88;5001259;28;20037;-75
2022/09/19 04:47:54;;;;;;;2.22;0.52;;;;;;;27.42;21.73;98764.56;5017444;28;20021;-74
2022/09/19 04:50:20;;;;;;;2.03;0.50;;;;;;;27.91;21.09;98772.56;4982919;28;20086;-73
2022/09/19 04:52:45;;;;;;;12.40;0.90;;;;;;;28.81;27.97;98772.56;5005208;28;20038;-72
2022/09/19 04:55:11;;;;;;;9.75;0.70;;;;;;;29.82;25.58;98774.06;5002834;28;20042;-74
2022/09/19 04:57:36;;;;;;;5.38;0.77;;;;;;;30.64;24.27;98767.34;4987199;28;20048;-78
2022/09/19 05:00:03;;;;;;;15.55;0.90;;;;;;;31.42;23.04;98775.34;5022780;28;20026;-81
2022/09/19 05:02:31;;;;;;;5.55;1.02;;;;;;;31.97;20.29;98767.28;4989602;28;20049;-77
2022/09/19 05:04:56;;;;;;;10.00;1.20;;;;;;;32.11;18.36;98768.53;4987789;28;20038;-74
2022/09/19 05:07:33;;;;;;;10.77;1.20;;;;;;;32.04;17.51;98760.63;5005521;28;20025;-75
2022/09/19 05:10:00;;;;;;;5.77;1.17;;;;;;;32.11;17.50;98773.94;5005743;28;20452;-73
2022/09/19 05:12:25;;;;;;;5.15;0.80;;;;;;;32.15;17.03;98774.22;5004650;28;20025;-73
2022/09/19 05:14:51;;;;;;;4.07;1.27;;;;;;;32.26;16.59;98771.34;5023134;28;20425;-72
2022/09/19 05:17:17;;;;;;;10.07;1.60;;;;;;;32.42;16.09;98772.28;5012490;28;20469;-71
2022/09/19 05:19:44;;;;;;;11.43;1.55;;;;;;;32.58;15.84;98775.09;4999404;28;20034;-72
2022/09/19 05:22:10;;;;;;;7.57;1.30;;;;;;;32.74;16.04;98759.81;5016452;28;20026;-76
2022/09/19 05:24:37;;;;;;;14.15;1.50;;;;;;;33.46;18.44;98768.22;4983758;28;20041;-79
2022/09/19 05:27:03;;;;;;;12.20;1.67;;;;;;;33.54;15.44;98765.00;5003367;28;20117;-76
2022/09/19 05:29:28;;;;;;;14.20;2.00;;;;;;;33.56;15.09;98762.84;5015868;28;20071;-76
2022/09/19 05:32:00;;;;;;;11.57;2.17;;;;;;;33.69;14.74;98756.91;4999561;28;20065;-79
2022/09/19 05:34:27;;;;;;;16.48;2.30;;;;;;;33.67;14.78;98761.78;4985396;28;20036;-76
2022/09/19 05:36:52;;;;;;;21.58;2.22;;;;;;;33.74;15.20;98766.16;4983743;28;20463;-78
2022/09/19 05:39:18;;;;;;;9.93;1.85;;;;;;;33.84;14.55;98764.28;4999756;28;20037;-75
2022/09/19 05:41:43;;;;;;;6.93;2.13;;;;;;;33.94;14.36;98763.47;4999692;28;20087;-77
2022/09/19 05:44:09;;;;;;;10.23;1.90;;;;;;;34.06;15.15;98766.72;5016067;28;20044;-76
2022/09/19 05:46:34;;;;;;;10.45;2.05;;;;;;;34.08;13.69;98775.38;4983127;28;20565;-76
2022/09/19 05:49:00;;;;;;;17.38;2.78;;;;;;;34.16;14.45;98770.50;5017630;28;20029;-79
2022/09/19 05:51:25;;;;;;;12.52;2.85;;;;;;;34.05;14.28;98758.88;5001855;28;20037;-82
2022/09/19 05:53:55;;;;;;;11.48;2.97;;;;;;;34.08;13.38;98769.97;4979627;28;20072;-79
2022/09/19 05:56:23;;;;;;;22.58;3.92;;;;;;;33.99;13.85;98778.91;4983919;28;20501;-81
2022/09/19 05:58:53;;;;;;;20.60;4.28;;;;;;;33.76;14.05;98772.91;5003341;28;20034;-80
2022/09/19 06:01:18;;;;;;;14.57;4.28;;;;;;;33.72;14.54;98779.97;4974811;28;20030;-78
2022/09/19 06:03:45;;;;;;;23.00;4.97;;;;;;;33.70;14.30;98780.22;4992159;28;20029;-78
2022/09/19 06:06:13;;;;;;;15.38;4.55;;;;;;;33.67;14.19;98788.84;5005234;28;20030;-80
2022/09/19 06:08:39;;;;;;;14.07;4.30;;;;;;;33.75;14.68;98792.13;4996840;28;20450;-80
2022/09/19 06:11:05;;;;;;;14.40;4.22;;;;;;;33.79;15.60;98793.22;4984500;28;20036;-75
2022/09/19 06:16:14;;;;;;;11.07;3.47;;;;;;;34.70;15.04;98791.59;5003652;28;20091;-74
2022/09/19 06:18:40;;;;;;;13.10;3.50;;;;;;;35.07;14.96;98781.50;4983742;28;20085;-76
2022/09/19 06:21:06;;;;;;;15.15;3.65;;;;;;;35.31;14.76;98793.38;4963025;28;20033;-76
2022/09/19 06:23:31;;;;;;;13.27;3.40;;;;;;;35.54;14.69;98785.63;4962811;28;20044;-76
2022/09/19 06:25:56;;;;;;;11.77;2.67;;;;;;;35.74;14.81;98792.84;4994948;28;20065;-74
2022/09/19 06:28:22;;;;;;;9.75;2.88;;;;;;;35.91;14.61;98792.47;4968618;28;20421;-72
2022/09/19 06:30:47;;;;;;;7.00;2.67;;;;;;;35.95;14.94;98787.31;5032302;28;20061;-77
2022/09/19 06:33:13;;;;;;;9.27;2.55;;;;;;;36.09;15.15;98793.72;4972566;28;20129;-78
2022/09/19 06:35:38;;;;;;;10.73;2.97;;;;;;;36.23;14.96;98799.31;5012511;28;20084;-78
2022/09/19 06:38:08;;;;;;;17.67;3.00;;;;;;;36.34;14.81;98794.59;4995299;28;20418;-78
2022/09/19 06:40:34;;;;;;;32.65;6.07;;;;;;;36.40;14.45;98786.13;4978346;28;20421;-75
2022/09/19 06:43:01;;;;;;;35.53;7.37;;;;;;;36.47;15.00;98787.69;4979846;28;20121;-79
2022/09/19 06:45:30;;;;;;;21.92;5.60;;;;;;;36.55;14.78;98798.75;4995111;28;20417;-79
2022/09/19 06:47:57;;;;;;;24.70;6.47;;;;;;;36.64;14.16;98804.38;4962709;28;20049;-77
2022/09/19 06:50:25;;;;;;;27.52;5.53;;;;;;;36.69;14.35;98792.63;4978197;28;20018;-77
2022/09/19 06:52:50;;;;;;;24.35;5.72;;;;;;;36.80;14.75;98805.06;4995215;28;20038;-76
2022/09/19 06:55:16;;;;;;;28.35;6.07;;;;;;;36.86;14.81;98801.19;4977745;28;20038;-77
2022/09/19 06:57:41;;;;;;;22.50;5.43;;;;;;;36.91;14.75;98801.13;4983842;28;20060;-78
2022/09/19 07:00:07;;;;;;;18.02;5.40;;;;;;;36.99;14.88;98796.13;4979755;28;20030;-77
2022/09/19 07:02:34;;;;;;;27.23;5.40;;;;;;;37.07;14.76;98806.41;4994480;28;20623;-76
2022/09/19 07:05:00;;;;;;;24.75;5.88;;;;;;;37.13;14.59;98810.66;4978342;28;20112;-77
2022/09/19 07:07:27;;;;;;;;;;;;;;;37.08;14.41;98810.72;4978945;28;20030;-75
2022/09/19 07:09:53;;;;;;;17.23;5.45;;;;;;;37.18;14.42;98812.50;5012601;28;20392;-76
2022/09/19 07:12:19;;;;;;;17.65;4.95;;;;;;;37.24;15.20;98804.03;4980261;28;20021;-77
2022/09/19 07:14:45;;;;;;;21.33;5.50;;;;;;;37.29;14.95;98801.25;5013675;28;20049;-77
2022/09/19 07:17:15;;;;;;;21.42;5.68;;;;;;;37.33;14.90;98808.81;4981223;28;20029;-79
2022/09/19 07:19:42;;;;;;;16.77;5.00;;;;;;;37.35;15.06;98810.13;5013777;28;20073;-80
2022/09/19 07:22:07;;;;;;;15.27;4.80;;;;;;;37.39;15.38;98800.28;4982651;28;20467;-76
2022/09/19 07:24:33;;;;;;;15.13;5.03;;;;;;;37.28;15.45;98804.25;5032220;28;20033;-78
2022/09/19 07:27:00;;;;;;;14.63;4.65;;;;;;;37.35;14.62;98793.81;4982152;28;20025;-79
2022/09/19 07:29:25;;;;;;;;;;;;;;;37.41;15.08;98797.28;4997183;28;20088;-79
2022/09/19 07:31:52;;;;;;;9.82;4.22;;;;;;;37.56;14.30;98805.25;4997710;28;19967;-79
2022/09/19 07:34:18;;;;;;;19.75;4.53;;;;;;;37.65;14.23;98797.22;4997677;28;20025;-79
2022/09/19 07:36:43;;;;;;;12.80;4.13;;;;;;;37.78;13.78;98803.84;4981137;28;20457;-80
2022/09/19 07:39:09;;;;;;;16.10;4.68;;;;;;;37.86;13.40;98797.75;5013976;28;20477;-81
2022/09/19 07:41:35;;;;;;;15.68;4.28;;;;;;;37.98;13.51;98810.91;4982477;28;20080;-80
2022/09/19 07:44:01;;;;;;;15.50;4.47;;;;;;;38.07;13.37;98805.63;4982372;28;20488;-81
2022/09/19 07:46:27;;;;;;;11.57;4.22;;;;;;;38.14;12.82;98801.38;5014958;28;20481;-79
2022/09/19 07:48:54;;;;;;;12.77;4.32;;;;;;;38.22;12.74;98794.47;5015729;28;20044;-78
2022/09/19 07:51:20;;;;;;;9.80;4.32;;;;;;;38.32;12.69;98799.75;5014775;28;20033;-79
2022/09/19 07:53:46;;;;;;;10.33;3.97;;;;;;;38.43;12.58;98803.13;4998917;28;20033;-78
2022/09/19 07:56:11;;;;;;;9.90;3.70;;;;;;;38.50;12.37;98803.53;4997878;28;20040;-79
2022/09/19 07:58:37;;;;;;;7.43;3.08;;;;;;;38.52;12.32;98795.03;4981810;28;20033;-78
2022/09/19 08:01:02;;;;;;;11.50;3.08;;;;;;;38.59;12.42;98794.63;5014983;28;20032;-79
2022/09/19 08:03:28;;;;;;;5.50;2.47;;;;;;;38.68;12.04;98799.16;4997935;28;20495;-80
2022/09/19 08:05:58;;;;;;;6.32;2.83;;;;;;;38.76;12.03;98802.28;5014503;28;20036;-80
2022/09/19 08:08:24;;;;;;;7.28;2.55;;;;;;;38.79;11.98;98799.72;4998555;28;20052;-79
2022/09/19 08:10:50;;;;;;;6.15;2.40;;;;;;;38.81;11.75;98799.44;5014165;28;20113;-79
2022/09/19 08:13:16;;;;;;;4.38;1.92;;;;;;;38.91;11.56;98791.88;4998513;28;20034;-78
2022/09/19 08:15:43;;;;;;;4.40;1.70;;;;;;;38.98;11.64;98793.38;4982599;28;20140;-79
2022/09/19 08:18:13;;;;;;;5.13;2.00;;;;;;;38.99;11.14;98790.34;4998470;28;20409;-78
2022/09/19 08:20:42;;;;;;;3.72;1.83;;;;;;;39.02;11.41;98789.75;4981800;28;20346;-78
2022/09/19 08:23:09;;;;;;;6.32;1.73;;;;;;;38.94;11.48;98776.81;4998506;28;20451;-79
2022/09/19 08:25:35;;;;;;;;;;;;;;;38.89;11.52;98779.66;5001906;28;20029;-78
2022/09/19 08:28:02;;;;;;;3.83;1.70;;;;;;;38.93;11.63;98774.38;5035911;28;20277;-79
2022/09/19 08:30:27;;;;;;;;;;;;;;;38.86;11.63;98772.88;4998440;28;20058;-80
2022/09/19 08:32:55;;;;;;;7.07;1.90;;;;;;;38.91;11.80;98769.22;5014439;28;20344;-79
2022/09/19 08:35:20;;;;;;;;;;;;;;;38.81;11.55;98762.06;4998606;28;20092;-80
2022/09/19 08:37:47;;;;;;;4.77;1.80;;;;;;;38.82;11.51;98766.41;4997814;28;19917;-79
2022/09/19 08:40:19;;;;;;;2.53;1.27;;;;;;;38.79;11.43;98756.09;4998127;28;20096;-80
2022/09/19 08:42:52;;;;;;;3.35;1.45;;;;;;;38.76;11.81;98755.91;4981433;28;20034;-77
2022/09/19 08:45:24;;;;;;;2.33;1.30;;;;;;;38.67;11.55;98750.34;4981432;28;20058;-82
2022/09/19 08:47:50;;;;;;;2.72;1.30;;;;;;;38.67;12.14;98751.16;5014576;28;20034;-84
2022/09/19 08:50:21;;;;;;;3.35;1.40;;;;;;;38.61;12.06;98746.06;4981229;28;20034;-74
2022/09/19 08:52:48;;;;;;;4.38;1.30;;;;;;;38.59;12.00;98742.81;5013236;28;20030;-75
2022/09/19 08:55:35;;;;;;;1.85;1.00;;;;;;;38.53;11.79;98740.19;4980175;28;20034;-78
2022/09/19 08:58:17;;;;;;;1.77;1.05;;;;;;;38.42;11.69;98732.53;4998559;28;20125;-78
2022/09/19 09:00:42;;;;;;;3.17;1.10;;;;;;;38.39;11.86;98738.59;4996731;28;20035;-74
2022/09/19 09:03:14;;;;;;;5.35;1.20;;;;;;;38.27;11.42;98737.16;4997248;28;20030;-73
2022/09/19 09:06:10;;;;;;;2.50;1.25;;;;;;;38.09;11.66;98735.25;4996429;28;20076;-77
2022/09/19 09:08:53;;;;;;;3.63;1.20;;;;;;;38.01;11.60;98728.59;4981818;28;20034;-74
2022/09/19 09:11:26;;;;;;;2.00;0.88;;;;;;;37.90;11.50;98727.94;5012950;28;20030;-79
2022/09/19 09:14:29;;;;;;;2.22;1.10;;;;;;;37.76;11.70;98722.44;5013301;28;20117;-76
2022/09/19 09:17:08;;;;;;;3.72;1.20;;;;;;;37.63;11.61;98715.00;5014235;28;20033;-77
2022/09/19 09:20:00;;;;;;;2.63;1.20;;;;;;;37.45;12.25;98701.13;5013567;28;20102;-76
2022/09/19 09:22:31;;;;;;;2.55;1.20;;;;;;;37.38;12.15;98705.31;5012875;28;20104;-74
2022/09/19 09:25:03;;;;;;;3.30;1.17;;;;;;;37.24;12.33;98699.78;4980156;28;20040;-76
2022/09/19 09:27:33;;;;;;;2.78;1.38;;;;;;;37.08;12.69;98697.25;4996616;28;20041;-76
2022/09/19 09:30:03;;;;;;;3.90;1.27;;;;;;;36.97;12.91;98692.25;4996477;28;20084;-77
2022/09/19 09:32:34;;;;;;;1.92;1.10;;;;;;;36.77;12.50;98694.16;4979443;28;20063;-77
2022/09/19 09:35:26;;;;;;;3.38;1.30;;;;;;;36.58;12.57;98689.44;4996467;28;20034;-78
2022/09/19 09:38:01;;;;;;;3.63;1.15;;;;;;;36.43;12.89;98688.81;5012196;28;20413;-78
2022/09/19 09:43:54;;;;;;;1.38;0.85;;;;;;;36.08;13.05;98688.03;5013738;28;20120;-78
2022/09/19 09:46:24;;;;;;;2.10;0.88;;;;;;;35.88;13.06;98684.41;4998101;28;20034;-76
2022/09/19 09:48:53;;;;;;;2.80;1.00;;;;;;;35.74;13.37;98683.41;5012589;28;20037;-79
2022/09/19 09:51:22;;;;;;;2.17;0.90;;;;;;;35.58;13.57;98678.13;4980198;28;20092;-77
2022/09/19 09:57:15;;;;;;;3.03;0.80;;;;;;;35.25;13.48;98672.38;4993624;28;20049;-76
2022/09/19 10:05:43;;;;;;;2.53;0.90;;;;;;;34.74;14.38;98659.88;4980673;28;20033;-75
2022/09/19 10:08:29;;;;;;;2.30;0.90;;;;;;;34.57;14.79;98659.34;4960503;28;20034;-77
2022/09/19 10:11:18;;;;;;;2.53;1.13;;;;;;;34.40;15.01;98654.28;4960366;28;20025;-78
2022/09/19 10:14:01;;;;;;;3.38;1.15;;;;;;;34.27;15.23;98649.44;4960675;28;20093;-77
2022/09/19 10:16:30;;;;;;;2.10;1.00;;;;;;;34.13;15.15;98644.56;4961984;28;20497;-76
2022/09/19 10:19:07;;;;;;;2.15;1.20;;;;;;;33.96;14.99;98646.78;4976520;28;20030;-76
2022/09/19 10:21:32;;;;;;;3.08;1.02;;;;;;;33.79;15.42;98652.47;4976804;28;20514;-76
2022/09/19 10:23:59;;;;;;;3.38;1.20;;;;;;;33.58;15.34;98652.44;4992194;28;20068;-77
2022/09/19 10:26:30;;;;;;;1.70;0.80;;;;;;;33.35;15.38;98649.19;4976057;28;20502;-76
2022/09/19 10:29:02;;;;;;;1.33;0.70;;;;;;;33.15;15.83;98646.41;4991631;28;20042;-79
2022/09/19 10:31:34;;;;;;;2.08;0.93;;;;;;;32.98;15.95;98646.63;4977928;28;20045;-75
2022/09/19 10:34:04;;;;;;;1.95;0.90;;;;;;;32.78;16.01;98639.28;4976303;28;20554;-77
2022/09/19 10:36:33;;;;;;;2.38;0.82;;;;;;;32.54;16.43;98633.47;4975529;28;20030;-80
2022/09/19 10:39:09;;;;;;;2.08;0.93;;;;;;;32.38;16.72;98632.59;4960412;28;20050;-77
2022/09/19 10:41:35;;;;;;;1.83;0.77;;;;;;;32.27;16.88;98640.63;4975520;28;20033;-78
2022/09/19 10:44:02;;;;;;;2.20;0.70;;;;;;;32.14;16.79;98632.22;4959583;28;20030;-77
2022/09/19 10:46:36;;;;;;;1.02;0.60;;;;;;;31.96;17.29;98622.59;4975499;28;20061;-77
2022/09/19 10:49:20;;;;;;;2.17;0.98;;;;;;;31.84;17.54;98625.50;4975129;28;20054;-77
2022/09/19 10:51:47;;;;;;;2.78;0.80;;;;;;;31.70;17.86;98617.03;4976567;28;20030;-77
2022/09/19 10:54:32;;;;;;;3.03;0.90;;;;;;;31.61;18.02;98622.06;4975499;28;20038;-79
2022/09/19 10:57:01;;;;;;;1.20;0.57;;;;;;;31.48;17.87;98620.59;4974371;28;20041;-78
2022/09/19 10:59:27;;;;;;;1.48;0.60;;;;;;;31.32;17.75;98611.56;4960236;28;20376;-78
2022/09/19 11:02:28;;;;;;;2.25;0.70;;;;;;;31.21;18.09;98615.22;4991420;28;20030;-77
2022/09/19 11:04:59;;;;;;;1.38;0.60;;;;;;;30.97;18.12;98595.88;4932481;29;20043;-77
2022/09/19 11:07:35;;;;;;;1.60;0.68;;;;;;;30.89;18.41;98604.38;4901113;29;20039;-80
2022/09/19 11:10:47;;;;;;;1.55;0.50;;;;;;;30.73;17.73;98603.41;4918262;29;20120;-75
2022/09/19 11:13:13;;;;;;;1.52;0.50;;;;;;;30.54;17.91;98601.03;4886325;29;20032;-75
2022/09/19 11:16:16;;;;;;;1.73;0.60;;;;;;;30.37;17.85;98598.34;4882065;29;20047;-78
2022/09/19 11:19:02;;;;;;;2.08;0.68;;;;;;;30.19;18.00;98591.41;4895971;29;20044;-78
2022/09/19 11:21:45;;;;;;;2.45;0.50;;;;;;;30.04;18.22;98583.91;4913290;29;20044;-79
2022/09/19 11:24:17;;;;;;;2.53;0.68;;;;;;;29.93;18.80;98595.59;4881171;29;20046;-76
2022/09/19 11:27:01;;;;;;;2.33;0.50;;;;;;;29.82;19.07;98586.56;4925000;29;20478;-79
2022/09/19 11:29:51;;;;;;;1.02;0.50;;;;;;;29.65;19.41;98583.03;4914582;29;20052;-79
2022/09/19 11:32:47;;;;;;;4.60;0.50;;;;;;;29.44;18.90;98576.53;4933293;29;20105;-78
2022/09/19 11:35:15;;;;;;;3.28;0.50;;;;;;;29.23;18.91;98584.25;4901604;29;20062;-79
2022/09/19 11:37:59;;;;;;;1.15;0.40;;;;;;;29.05;18.58;98577.19;4933078;29;20024;-78
2022/09/19 11:41:03;;;;;;;1.10;0.57;;;;;;;28.90;19.02;98587.66;4918321;29;20043;-78
2022/09/19 11:43:31;;;;;;;0.60;0.30;;;;;;;28.74;19.02;98573.13;4991274;28;20579;-77
2022/09/19 11:46:32;;;;;;;2.38;0.50;;;;;;;28.56;18.95;98572.22;4974700;28;20453;-79
2022/09/19 11:49:15;;;;;;;1.92;0.50;;;;;;;28.44;19.48;98563.38;4952487;29;20036;-80
2022/09/19 11:51:52;;;;;;;0.52;0.35;;;;;;;28.32;19.51;98556.19;4952401;29;20043;-80
2022/09/19 11:54:28;;;;;;;2.00;0.52;;;;;;;28.18;19.71;98544.06;4937852;29;20051;-78
2022/09/19 11:57:10;;;;;;;1.30;0.40;;;;;;;28.10;19.96;98555.16;4921241;29;20039;-77
2022/09/19 11:59:55;;;;;;;1.40;0.70;;;;;;;28.03;19.82;98551.78;4938739;29;20023;-78
2022/09/19 12:02:36;;;;;;;1.17;0.70;;;;;;;27.94;19.77;98548.59;4956203;29;20039;-79
2022/09/19 12:05:20;;;;;;;1.58;0.60;;;;;;;27.89;19.94;98548.50;4955934;29;20035;-78
2022/09/19 12:08:26;;;;;;;2.95;0.70;;;;;;;27.79;19.99;98551.78;4955931;29;20414;-76
2022/09/19 12:11:18;;;;;;;1.25;0.60;;;;;;;27.70;19.72;98543.25;4905653;29;20146;-78